sensor_id;sensor_type;location;lat;lon;timestamp;P1;durP1;ratioP1;P2;durP2;ratioP2
11829;SDS011;5972;42.134;24.718;2023-05-02T00:00:23;5.88;;;4.75;;
11829;SDS011;5972;42.134;24.718;2023-05-02T00:02:49;5.18;;;4.38;;
11829;SDS011;5972;42.134;24.718;2023-05-02T00:05:17;4.85;;;4.35;;
11829;SDS011;5972;42.134;24.718;2023-05-02T00:07:44;5.63;;;4.60;;
11829;SDS011;5972;42.134;24.718;2023-05-02T00:10:10;4.97;;;4.43;;
11829;SDS011;5972;42.134;24.718;2023-05-02T00:12:37;5.85;;;5.25;;
11829;SDS011;5972;42.134;24.718;2023-05-02T00:15:04;5.43;;;4.93;;
11829;SDS011;5972;42.134;24.718;2023-05-02T00:17:30;5.38;;;4.88;;
11829;SDS011;5972;42.134;24.718;2023-05-02T00:19:57;8.77;;;5.03;;
11829;SDS011;5972;42.134;24.718;2023-05-02T00:22:25;7.30;;;5.50;;
11829;SDS011;5972;42.134;24.718;2023-05-02T00:24:54;9.38;;;5.60;;
11829;SDS011;5972;42.134;24.718;2023-05-02T00:27:21;6.07;;;5.45;;
11829;SDS011;5972;42.134;24.718;2023-05-02T00:29:47;5.70;;;5.03;;
11829;SDS011;5972;42.134;24.718;2023-05-02T00:32:14;6.20;;;5.60;;
11829;SDS011;5972;42.134;24.718;2023-05-02T00:34:40;8.75;;;5.30;;
11829;SDS011;5972;42.134;24.718;2023-05-02T00:37:07;6.68;;;6.07;;
11829;SDS011;5972;42.134;24.718;2023-05-02T00:39:34;6.93;;;6.03;;
11829;SDS011;5972;42.134;24.718;2023-05-02T00:42:01;7.35;;;5.72;;
11829;SDS011;5972;42.134;24.718;2023-05-02T00:44:28;8.73;;;5.97;;
11829;SDS011;5972;42.134;24.718;2023-05-02T00:46:54;6.10;;;5.50;;
11829;SDS011;5972;42.134;24.718;2023-05-02T00:49:21;8.38;;;5.45;;
11829;SDS011;5972;42.134;24.718;2023-05-02T00:51:48;6.03;;;5.43;;
11829;SDS011;5972;42.134;24.718;2023-05-02T00:54:14;5.68;;;5.15;;
11829;SDS011;5972;42.134;24.718;2023-05-02T00:56:42;6.97;;;5.38;;
11829;SDS011;5972;42.134;24.718;2023-05-02T00:59:09;5.78;;;5.20;;
11829;SDS011;5972;42.134;24.718;2023-05-02T01:01:38;6.53;;;5.60;;
11829;SDS011;5972;42.134;24.718;2023-05-02T01:04:18;5.50;;;5.00;;
11829;SDS011;5972;42.134;24.718;2023-05-02T01:06:49;5.30;;;4.75;;
11829;SDS011;5972;42.134;24.718;2023-05-02T01:09:25;5.07;;;4.57;;
11829;SDS011;5972;42.134;24.718;2023-05-02T01:11:58;5.00;;;4.50;;
11829;SDS011;5972;42.134;24.718;2023-05-02T01:14:27;5.43;;;4.45;;
11829;SDS011;5972;42.134;24.718;2023-05-02T01:16:54;5.63;;;4.60;;
11829;SDS011;5972;42.134;24.718;2023-05-02T01:19:24;5.97;;;4.57;;
11829;SDS011;5972;42.134;24.718;2023-05-02T01:21:51;4.97;;;4.57;;
11829;SDS011;5972;42.134;24.718;2023-05-02T01:24:21;7.50;;;5.13;;
11829;SDS011;5972;42.134;24.718;2023-05-02T01:26:51;5.28;;;4.75;;
11829;SDS011;5972;42.134;24.718;2023-05-02T01:29:19;5.60;;;5.10;;
11829;SDS011;5972;42.134;24.718;2023-05-02T01:31:48;6.43;;;4.80;;
11829;SDS011;5972;42.134;24.718;2023-05-02T01:34:15;5.72;;;4.63;;
11829;SDS011;5972;42.134;24.718;2023-05-02T01:36:43;5.75;;;4.75;;
11829;SDS011;5972;42.134;24.718;2023-05-02T01:39:12;8.57;;;4.70;;
11829;SDS011;5972;42.134;24.718;2023-05-02T01:41:39;7.45;;;5.07;;
11829;SDS011;5972;42.134;24.718;2023-05-02T01:44:07;8.40;;;4.93;;
11829;SDS011;5972;42.134;24.718;2023-05-02T01:46:37;5.70;;;5.18;;
11829;SDS011;5972;42.134;24.718;2023-05-02T01:49:05;8.27;;;5.50;;
11829;SDS011;5972;42.134;24.718;2023-05-02T01:51:34;6.30;;;5.65;;
11829;SDS011;5972;42.134;24.718;2023-05-02T01:54:02;5.82;;;5.32;;
11829;SDS011;5972;42.134;24.718;2023-05-02T01:56:30;5.90;;;5.30;;
11829;SDS011;5972;42.134;24.718;2023-05-02T01:58:58;6.63;;;5.18;;
11829;SDS011;5972;42.134;24.718;2023-05-02T02:01:24;6.30;;;5.70;;
11829;SDS011;5972;42.134;24.718;2023-05-02T02:03:54;7.80;;;5.68;;
11829;SDS011;5972;42.134;24.718;2023-05-02T02:06:21;5.75;;;5.15;;
11829;SDS011;5972;42.134;24.718;2023-05-02T02:08:48;8.55;;;5.28;;
11829;SDS011;5972;42.134;24.718;2023-05-02T02:11:16;6.70;;;5.05;;
11829;SDS011;5972;42.134;24.718;2023-05-02T02:13:43;7.07;;;5.18;;
11829;SDS011;5972;42.134;24.718;2023-05-02T02:16:10;5.95;;;4.90;;
11829;SDS011;5972;42.134;24.718;2023-05-02T02:18:37;5.30;;;4.70;;
11829;SDS011;5972;42.134;24.718;2023-05-02T02:21:06;8.07;;;5.00;;
11829;SDS011;5972;42.134;24.718;2023-05-02T02:23:34;7.43;;;5.53;;
11829;SDS011;5972;42.134;24.718;2023-05-02T02:26:01;6.20;;;5.00;;
11829;SDS011;5972;42.134;24.718;2023-05-02T02:28:30;6.90;;;5.05;;
11829;SDS011;5972;42.134;24.718;2023-05-02T02:30:57;5.88;;;5.25;;
11829;SDS011;5972;42.134;24.718;2023-05-02T02:33:23;6.85;;;5.25;;
11829;SDS011;5972;42.134;24.718;2023-05-02T02:35:56;5.65;;;4.88;;
11829;SDS011;5972;42.134;24.718;2023-05-02T02:38:28;5.20;;;4.70;;
11829;SDS011;5972;42.134;24.718;2023-05-02T02:40:59;5.80;;;5.00;;
11829;SDS011;5972;42.134;24.718;2023-05-02T02:43:31;5.40;;;4.80;;
11829;SDS011;5972;42.134;24.718;2023-05-02T02:46:01;6.82;;;4.68;;
11829;SDS011;5972;42.134;24.718;2023-05-02T02:48:34;6.18;;;4.80;;
11829;SDS011;5972;42.134;24.718;2023-05-02T02:51:03;7.13;;;4.95;;
11829;SDS011;5972;42.134;24.718;2023-05-02T02:53:37;7.00;;;5.07;;
11829;SDS011;5972;42.134;24.718;2023-05-02T02:56:12;6.63;;;4.78;;
11829;SDS011;5972;42.134;24.718;2023-05-02T02:58:42;5.28;;;4.75;;
11829;SDS011;5972;42.134;24.718;2023-05-02T03:01:14;7.05;;;5.30;;
11829;SDS011;5972;42.134;24.718;2023-05-02T03:03:41;5.30;;;4.65;;
11829;SDS011;5972;42.134;24.718;2023-05-02T03:06:08;8.82;;;5.50;;
11829;SDS011;5972;42.134;24.718;2023-05-02T03:08:39;8.60;;;5.70;;
11829;SDS011;5972;42.134;24.718;2023-05-02T03:11:06;9.60;;;5.43;;
11829;SDS011;5972;42.134;24.718;2023-05-02T03:13:33;6.07;;;5.47;;
11829;SDS011;5972;42.134;24.718;2023-05-02T03:16:11;6.30;;;5.68;;
11829;SDS011;5972;42.134;24.718;2023-05-02T03:18:43;8.73;;;5.72;;
11829;SDS011;5972;42.134;24.718;2023-05-02T03:21:09;7.45;;;5.57;;
11829;SDS011;5972;42.134;24.718;2023-05-02T03:23:36;8.52;;;6.22;;
11829;SDS011;5972;42.134;24.718;2023-05-02T03:26:04;9.35;;;5.80;;
11829;SDS011;5972;42.134;24.718;2023-05-02T03:28:30;8.15;;;6.60;;
11829;SDS011;5972;42.134;24.718;2023-05-02T03:30:57;9.60;;;6.18;;
11829;SDS011;5972;42.134;24.718;2023-05-02T03:33:23;6.47;;;5.80;;
11829;SDS011;5972;42.134;24.718;2023-05-02T03:35:50;10.38;;;6.22;;
11829;SDS011;5972;42.134;24.718;2023-05-02T03:38:16;7.47;;;6.60;;
11829;SDS011;5972;42.134;24.718;2023-05-02T03:40:43;7.63;;;6.22;;
11829;SDS011;5972;42.134;24.718;2023-05-02T03:43:11;9.80;;;6.65;;
11829;SDS011;5972;42.134;24.718;2023-05-02T03:45:37;15.73;;;6.93;;
11829;SDS011;5972;42.134;24.718;2023-05-02T03:48:04;10.27;;;7.32;;
11829;SDS011;5972;42.134;24.718;2023-05-02T03:50:30;9.55;;;7.03;;
11829;SDS011;5972;42.134;24.718;2023-05-02T03:52:57;8.85;;;5.88;;
11829;SDS011;5972;42.134;24.718;2023-05-02T03:55:23;8.98;;;6.55;;
11829;SDS011;5972;42.134;24.718;2023-05-02T03:57:52;8.18;;;6.50;;
11829;SDS011;5972;42.134;24.718;2023-05-02T04:00:20;12.30;;;6.50;;
11829;SDS011;5972;42.134;24.718;2023-05-02T04:02:47;14.18;;;6.30;;
11829;SDS011;5972;42.134;24.718;2023-05-02T04:05:13;13.90;;;6.20;;
11829;SDS011;5972;42.134;24.718;2023-05-02T04:07:40;12.52;;;5.78;;
11829;SDS011;5972;42.134;24.718;2023-05-02T04:10:06;9.32;;;6.22;;
11829;SDS011;5972;42.134;24.718;2023-05-02T04:12:40;14.40;;;6.47;;
11829;SDS011;5972;42.134;24.718;2023-05-02T04:15:08;15.20;;;5.90;;
11829;SDS011;5972;42.134;24.718;2023-05-02T04:17:36;14.13;;;7.03;;
11829;SDS011;5972;42.134;24.718;2023-05-02T04:20:02;17.33;;;6.50;;
11829;SDS011;5972;42.134;24.718;2023-05-02T04:22:29;10.60;;;6.80;;
11829;SDS011;5972;42.134;24.718;2023-05-02T04:24:55;15.25;;;6.13;;
11829;SDS011;5972;42.134;24.718;2023-05-02T04:27:28;16.77;;;6.53;;
11829;SDS011;5972;42.134;24.718;2023-05-02T04:30:09;7.97;;;5.97;;
11829;SDS011;5972;42.134;24.718;2023-05-02T04:32:37;9.70;;;6.50;;
11829;SDS011;5972;42.134;24.718;2023-05-02T04:35:04;7.22;;;4.93;;
11829;SDS011;5972;42.134;24.718;2023-05-02T04:37:30;7.22;;;6.43;;
11829;SDS011;5972;42.134;24.718;2023-05-02T04:39:57;11.18;;;6.65;;
11829;SDS011;5972;42.134;24.718;2023-05-02T04:42:23;8.85;;;5.72;;
11829;SDS011;5972;42.134;24.718;2023-05-02T04:44:50;6.95;;;5.53;;
11829;SDS011;5972;42.134;24.718;2023-05-02T04:47:16;7.60;;;5.65;;
11829;SDS011;5972;42.134;24.718;2023-05-02T04:49:44;13.73;;;6.57;;
11829;SDS011;5972;42.134;24.718;2023-05-02T04:52:11;7.85;;;5.40;;
11829;SDS011;5972;42.134;24.718;2023-05-02T04:54:37;9.40;;;6.05;;
11829;SDS011;5972;42.134;24.718;2023-05-02T04:57:03;13.70;;;5.53;;
11829;SDS011;5972;42.134;24.718;2023-05-02T04:59:32;14.40;;;5.72;;
11829;SDS011;5972;42.134;24.718;2023-05-02T05:01:59;9.15;;;5.85;;
11829;SDS011;5972;42.134;24.718;2023-05-02T05:04:25;12.93;;;5.90;;
11829;SDS011;5972;42.134;24.718;2023-05-02T05:06:53;7.40;;;5.40;;
11829;SDS011;5972;42.134;24.718;2023-05-02T05:09:22;12.52;;;5.32;;
11829;SDS011;5972;42.134;24.718;2023-05-02T05:11:48;13.25;;;5.25;;
11829;SDS011;5972;42.134;24.718;2023-05-02T05:14:15;15.50;;;5.72;;
11829;SDS011;5972;42.134;24.718;2023-05-02T05:16:41;8.65;;;5.57;;
11829;SDS011;5972;42.134;24.718;2023-05-02T05:19:17;9.27;;;5.35;;
11829;SDS011;5972;42.134;24.718;2023-05-02T05:22:10;7.78;;;5.55;;
11829;SDS011;5972;42.134;24.718;2023-05-02T05:25:13;8.82;;;5.53;;
11829;SDS011;5972;42.134;24.718;2023-05-02T05:28:19;7.47;;;5.30;;
11829;SDS011;5972;42.134;24.718;2023-05-02T05:30:46;13.43;;;6.07;;
11829;SDS011;5972;42.134;24.718;2023-05-02T05:33:12;10.40;;;5.50;;
11829;SDS011;5972;42.134;24.718;2023-05-02T05:35:39;13.15;;;5.97;;
11829;SDS011;5972;42.134;24.718;2023-05-02T05:38:07;16.73;;;5.60;;
11829;SDS011;5972;42.134;24.718;2023-05-02T05:40:33;11.15;;;5.78;;
11829;SDS011;5972;42.134;24.718;2023-05-02T05:43:02;12.25;;;5.50;;
11829;SDS011;5972;42.134;24.718;2023-05-02T05:45:32;15.98;;;6.07;;
11829;SDS011;5972;42.134;24.718;2023-05-02T05:47:58;9.13;;;6.20;;
11829;SDS011;5972;42.134;24.718;2023-05-02T05:50:25;11.82;;;5.53;;
11829;SDS011;5972;42.134;24.718;2023-05-02T05:52:51;15.70;;;6.50;;
11829;SDS011;5972;42.134;24.718;2023-05-02T05:55:19;16.08;;;6.15;;
11829;SDS011;5972;42.134;24.718;2023-05-02T05:57:46;12.07;;;6.00;;
11829;SDS011;5972;42.134;24.718;2023-05-02T06:00:13;18.33;;;6.63;;
11829;SDS011;5972;42.134;24.718;2023-05-02T06:02:39;15.25;;;6.10;;
11829;SDS011;5972;42.134;24.718;2023-05-02T06:05:06;13.02;;;5.30;;
11829;SDS011;5972;42.134;24.718;2023-05-02T06:07:32;9.07;;;5.30;;
11829;SDS011;5972;42.134;24.718;2023-05-02T06:09:59;9.27;;;4.88;;
11829;SDS011;5972;42.134;24.718;2023-05-02T06:12:27;11.52;;;5.03;;
11829;SDS011;5972;42.134;24.718;2023-05-02T06:14:53;6.80;;;4.97;;
11829;SDS011;5972;42.134;24.718;2023-05-02T06:17:20;8.32;;;4.97;;
11829;SDS011;5972;42.134;24.718;2023-05-02T06:19:46;11.73;;;5.25;;
11829;SDS011;5972;42.134;24.718;2023-05-02T06:22:13;9.18;;;5.25;;
11829;SDS011;5972;42.134;24.718;2023-05-02T06:24:41;6.97;;;4.80;;
11829;SDS011;5972;42.134;24.718;2023-05-02T06:27:08;7.45;;;4.93;;
11829;SDS011;5972;42.134;24.718;2023-05-02T06:29:36;5.80;;;5.15;;
11829;SDS011;5972;42.134;24.718;2023-05-02T06:32:02;6.07;;;4.82;;
11829;SDS011;5972;42.134;24.718;2023-05-02T06:34:30;5.05;;;4.55;;
11829;SDS011;5972;42.134;24.718;2023-05-02T06:36:57;10.90;;;5.05;;
11829;SDS011;5972;42.134;24.718;2023-05-02T06:39:23;6.45;;;5.38;;
11829;SDS011;5972;42.134;24.718;2023-05-02T06:41:50;8.95;;;5.82;;
11829;SDS011;5972;42.134;24.718;2023-05-02T06:44:16;11.95;;;5.55;;
11829;SDS011;5972;42.134;24.718;2023-05-02T06:46:44;8.68;;;5.25;;
11829;SDS011;5972;42.134;24.718;2023-05-02T06:49:10;9.93;;;5.68;;
11829;SDS011;5972;42.134;24.718;2023-05-02T06:51:37;8.05;;;5.65;;
11829;SDS011;5972;42.134;24.718;2023-05-02T06:54:03;9.45;;;5.50;;
11829;SDS011;5972;42.134;24.718;2023-05-02T06:56:30;10.32;;;5.38;;
11829;SDS011;5972;42.134;24.718;2023-05-02T06:58:56;8.77;;;5.75;;
11829;SDS011;5972;42.134;24.718;2023-05-02T07:01:23;11.85;;;6.57;;
11829;SDS011;5972;42.134;24.718;2023-05-02T07:03:52;7.68;;;5.90;;
11829;SDS011;5972;42.134;24.718;2023-05-02T07:06:18;10.82;;;6.65;;
11829;SDS011;5972;42.134;24.718;2023-05-02T07:08:45;10.38;;;6.68;;
11829;SDS011;5972;42.134;24.718;2023-05-02T07:11:12;11.70;;;5.68;;
11829;SDS011;5972;42.134;24.718;2023-05-02T07:13:38;8.80;;;4.80;;
11829;SDS011;5972;42.134;24.718;2023-05-02T07:16:05;10.10;;;4.70;;
11829;SDS011;5972;42.134;24.718;2023-05-02T07:18:32;6.10;;;4.35;;
11829;SDS011;5972;42.134;24.718;2023-05-02T07:21:00;8.77;;;5.15;;
11829;SDS011;5972;42.134;24.718;2023-05-02T07:23:26;7.25;;;4.78;;
11829;SDS011;5972;42.134;24.718;2023-05-02T07:25:53;6.43;;;4.07;;
11829;SDS011;5972;42.134;24.718;2023-05-02T07:28:19;4.70;;;4.13;;
11829;SDS011;5972;42.134;24.718;2023-05-02T07:30:46;4.40;;;3.17;;
11829;SDS011;5972;42.134;24.718;2023-05-02T07:33:13;5.03;;;3.15;;
11829;SDS011;5972;42.134;24.718;2023-05-02T07:35:40;5.68;;;2.95;;
11829;SDS011;5972;42.134;24.718;2023-05-02T07:38:07;3.13;;;2.53;;
11829;SDS011;5972;42.134;24.718;2023-05-02T07:40:34;6.40;;;2.53;;
11829;SDS011;5972;42.134;24.718;2023-05-02T07:43:00;5.13;;;2.70;;
11829;SDS011;5972;42.134;24.718;2023-05-02T07:45:27;5.47;;;2.63;;
11829;SDS011;5972;42.134;24.718;2023-05-02T07:47:53;5.85;;;2.80;;
11829;SDS011;5972;42.134;24.718;2023-05-02T07:50:20;4.72;;;2.50;;
11829;SDS011;5972;42.134;24.718;2023-05-02T07:52:46;3.92;;;2.33;;
11829;SDS011;5972;42.134;24.718;2023-05-02T07:55:14;5.35;;;2.58;;
11829;SDS011;5972;42.134;24.718;2023-05-02T07:57:41;5.30;;;2.22;;
11829;SDS011;5972;42.134;24.718;2023-05-02T08:00:07;5.38;;;2.63;;
11829;SDS011;5972;42.134;24.718;2023-05-02T08:02:34;3.85;;;2.55;;
11829;SDS011;5972;42.134;24.718;2023-05-02T08:05:01;3.20;;;2.22;;
11829;SDS011;5972;42.134;24.718;2023-05-02T08:07:28;3.83;;;2.28;;
11829;SDS011;5972;42.134;24.718;2023-05-02T08:09:55;3.00;;;2.38;;
11829;SDS011;5972;42.134;24.718;2023-05-02T08:12:23;10.25;;;2.55;;
11829;SDS011;5972;42.134;24.718;2023-05-02T08:14:49;3.88;;;1.95;;
11829;SDS011;5972;42.134;24.718;2023-05-02T08:17:16;5.25;;;2.22;;
11829;SDS011;5972;42.134;24.718;2023-05-02T08:19:42;4.55;;;2.17;;
11829;SDS011;5972;42.134;24.718;2023-05-02T08:22:09;3.47;;;1.88;;
11829;SDS011;5972;42.134;24.718;2023-05-02T08:24:35;3.08;;;1.92;;
11829;SDS011;5972;42.134;24.718;2023-05-02T08:27:02;5.07;;;2.05;;
11829;SDS011;5972;42.134;24.718;2023-05-02T08:29:30;4.43;;;1.80;;
11829;SDS011;5972;42.134;24.718;2023-05-02T08:31:56;2.00;;;1.70;;
11829;SDS011;5972;42.134;24.718;2023-05-02T08:34:23;2.35;;;1.77;;
11829;SDS011;5972;42.134;24.718;2023-05-02T08:36:50;3.75;;;1.60;;
11829;SDS011;5972;42.134;24.718;2023-05-02T08:39:16;3.10;;;2.30;;
11829;SDS011;5972;42.134;24.718;2023-05-02T08:41:43;4.03;;;1.92;;
11829;SDS011;5972;42.134;24.718;2023-05-02T08:44:10;3.88;;;1.50;;
11829;SDS011;5972;42.134;24.718;2023-05-02T08:46:39;1.73;;;1.63;;
11829;SDS011;5972;42.134;24.718;2023-05-02T08:49:06;5.25;;;2.13;;
11829;SDS011;5972;42.134;24.718;2023-05-02T08:51:33;3.47;;;1.75;;
11829;SDS011;5972;42.134;24.718;2023-05-02T08:54:00;2.65;;;1.50;;
11829;SDS011;5972;42.134;24.718;2023-05-02T08:56:27;4.47;;;1.70;;
11829;SDS011;5972;42.134;24.718;2023-05-02T08:58:54;2.70;;;1.63;;
11829;SDS011;5972;42.134;24.718;2023-05-02T09:01:22;4.40;;;1.60;;
11829;SDS011;5972;42.134;24.718;2023-05-02T09:03:50;2.13;;;1.60;;
11829;SDS011;5972;42.134;24.718;2023-05-02T09:06:17;1.38;;;1.27;;
11829;SDS011;5972;42.134;24.718;2023-05-02T09:08:44;5.65;;;1.45;;
11829;SDS011;5972;42.134;24.718;2023-05-02T09:11:13;3.08;;;1.35;;
11829;SDS011;5972;42.134;24.718;2023-05-02T09:13:40;2.20;;;1.35;;
11829;SDS011;5972;42.134;24.718;2023-05-02T09:16:07;3.25;;;1.30;;
11829;SDS011;5972;42.134;24.718;2023-05-02T09:18:35;6.97;;;1.50;;
11829;SDS011;5972;42.134;24.718;2023-05-02T09:21:04;2.50;;;1.42;;
11829;SDS011;5972;42.134;24.718;2023-05-02T09:23:36;3.08;;;1.30;;
11829;SDS011;5972;42.134;24.718;2023-05-02T09:26:09;3.15;;;1.70;;
11829;SDS011;5972;42.134;24.718;2023-05-02T09:28:37;4.70;;;1.40;;
11829;SDS011;5972;42.134;24.718;2023-05-02T09:31:05;4.45;;;1.60;;
11829;SDS011;5972;42.134;24.718;2023-05-02T09:33:32;2.17;;;1.30;;
11829;SDS011;5972;42.134;24.718;2023-05-02T09:35:58;3.88;;;1.27;;
11829;SDS011;5972;42.134;24.718;2023-05-02T09:38:26;3.70;;;1.48;;
11829;SDS011;5972;42.134;24.718;2023-05-02T09:40:53;3.17;;;1.20;;
11829;SDS011;5972;42.134;24.718;2023-05-02T09:43:23;3.35;;;1.60;;
11829;SDS011;5972;42.134;24.718;2023-05-02T09:46:07;1.85;;;1.40;;
11829;SDS011;5972;42.134;24.718;2023-05-02T09:48:50;3.80;;;1.50;;
11829;SDS011;5972;42.134;24.718;2023-05-02T09:52:54;3.90;;;1.50;;
11829;SDS011;5972;42.134;24.718;2023-05-02T09:57:39;6.15;;;1.65;;
11829;SDS011;5972;42.134;24.718;2023-05-02T10:00:06;1.65;;;1.20;;
11829;SDS011;5972;42.134;24.718;2023-05-02T10:02:34;1.52;;;1.30;;
11829;SDS011;5972;42.134;24.718;2023-05-02T10:05:06;3.50;;;1.58;;
11829;SDS011;5972;42.134;24.718;2023-05-02T10:07:37;5.05;;;1.80;;
11829;SDS011;5972;42.134;24.718;2023-05-02T10:10:05;1.50;;;1.33;;
11829;SDS011;5972;42.134;24.718;2023-05-02T10:12:32;8.25;;;1.70;;
11829;SDS011;5972;42.134;24.718;2023-05-02T10:15:02;5.60;;;1.60;;
11829;SDS011;5972;42.134;24.718;2023-05-02T10:17:30;1.98;;;1.58;;
11829;SDS011;5972;42.134;24.718;2023-05-02T10:20:00;5.80;;;1.85;;
11829;SDS011;5972;42.134;24.718;2023-05-02T10:22:28;3.22;;;1.20;;
11829;SDS011;5972;42.134;24.718;2023-05-02T10:24:55;2.58;;;1.17;;
11829;SDS011;5972;42.134;24.718;2023-05-02T10:27:23;1.63;;;1.20;;
11829;SDS011;5972;42.134;24.718;2023-05-02T10:29:50;2.90;;;1.40;;
11829;SDS011;5972;42.134;24.718;2023-05-02T10:32:18;2.63;;;1.15;;
11829;SDS011;5972;42.134;24.718;2023-05-02T10:34:45;3.33;;;1.35;;
11829;SDS011;5972;42.134;24.718;2023-05-02T10:37:12;1.50;;;1.40;;
11829;SDS011;5972;42.134;24.718;2023-05-02T10:39:40;1.70;;;1.13;;
11829;SDS011;5972;42.134;24.718;2023-05-02T10:42:07;1.05;;;0.98;;
11829;SDS011;5972;42.134;24.718;2023-05-02T10:44:34;3.78;;;1.45;;
11829;SDS011;5972;42.134;24.718;2023-05-02T10:47:10;1.60;;;1.30;;
11829;SDS011;5972;42.134;24.718;2023-05-02T10:49:49;4.47;;;1.38;;
11829;SDS011;5972;42.134;24.718;2023-05-02T10:52:25;3.72;;;1.55;;
11829;SDS011;5972;42.134;24.718;2023-05-02T10:57:34;2.55;;;1.27;;
11829;SDS011;5972;42.134;24.718;2023-05-02T11:02:48;2.50;;;1.30;;
11829;SDS011;5972;42.134;24.718;2023-05-02T11:05:16;8.48;;;1.45;;
11829;SDS011;5972;42.134;24.718;2023-05-02T11:07:43;3.33;;;1.10;;
11829;SDS011;5972;42.134;24.718;2023-05-02T11:12:57;2.58;;;1.30;;
11829;SDS011;5972;42.134;24.718;2023-05-02T11:18:12;3.08;;;1.13;;
11829;SDS011;5972;42.134;24.718;2023-05-02T11:20:42;1.52;;;1.30;;
11829;SDS011;5972;42.134;24.718;2023-05-02T11:23:18;4.15;;;1.48;;
11829;SDS011;5972;42.134;24.718;2023-05-02T11:25:50;4.93;;;1.25;;
11829;SDS011;5972;42.134;24.718;2023-05-02T11:31:02;2.72;;;1.20;;
11829;SDS011;5972;42.134;24.718;2023-05-02T11:33:29;1.50;;;1.20;;
11829;SDS011;5972;42.134;24.718;2023-05-02T11:35:57;1.55;;;1.20;;
11829;SDS011;5972;42.134;24.718;2023-05-02T11:38:24;6.18;;;1.23;;
11829;SDS011;5972;42.134;24.718;2023-05-02T11:40:54;2.95;;;1.10;;
11829;SDS011;5972;42.134;24.718;2023-05-02T11:43:21;1.63;;;1.10;;
11829;SDS011;5972;42.134;24.718;2023-05-02T11:45:49;3.70;;;1.48;;
11829;SDS011;5972;42.134;24.718;2023-05-02T11:48:16;2.65;;;1.33;;
11829;SDS011;5972;42.134;24.718;2023-05-02T11:50:43;4.68;;;1.30;;
11829;SDS011;5972;42.134;24.718;2023-05-02T11:53:12;3.08;;;1.27;;
11829;SDS011;5972;42.134;24.718;2023-05-02T11:55:43;4.28;;;1.40;;
11829;SDS011;5972;42.134;24.718;2023-05-02T11:58:11;3.00;;;1.40;;
11829;SDS011;5972;42.134;24.718;2023-05-02T12:00:38;6.18;;;1.50;;
11829;SDS011;5972;42.134;24.718;2023-05-02T12:03:04;4.72;;;1.40;;
11829;SDS011;5972;42.134;24.718;2023-05-02T12:05:31;1.73;;;1.08;;
11829;SDS011;5972;42.134;24.718;2023-05-02T12:07:58;2.03;;;1.10;;
11829;SDS011;5972;42.134;24.718;2023-05-02T12:10:35;2.15;;;1.30;;
11829;SDS011;5972;42.134;24.718;2023-05-02T12:13:05;3.72;;;1.38;;
11829;SDS011;5972;42.134;24.718;2023-05-02T12:15:31;2.03;;;1.25;;
11829;SDS011;5972;42.134;24.718;2023-05-02T12:17:58;3.42;;;1.30;;
11829;SDS011;5972;42.134;24.718;2023-05-02T12:20:24;1.60;;;1.25;;
11829;SDS011;5972;42.134;24.718;2023-05-02T12:22:51;0.98;;;0.98;;
11829;SDS011;5972;42.134;24.718;2023-05-02T12:25:18;4.13;;;1.20;;
11829;SDS011;5972;42.134;24.718;2023-05-02T12:27:58;1.58;;;1.05;;
11829;SDS011;5972;42.134;24.718;2023-05-02T12:30:25;2.03;;;1.17;;
11829;SDS011;5972;42.134;24.718;2023-05-02T12:32:54;2.03;;;1.10;;
11829;SDS011;5972;42.134;24.718;2023-05-02T12:35:21;1.70;;;1.10;;
11829;SDS011;5972;42.134;24.718;2023-05-02T12:37:48;4.75;;;1.02;;
11829;SDS011;5972;42.134;24.718;2023-05-02T12:40:14;4.88;;;1.30;;
11829;SDS011;5972;42.134;24.718;2023-05-02T12:42:41;2.45;;;1.23;;
11829;SDS011;5972;42.134;24.718;2023-05-02T12:45:16;2.83;;;1.30;;
11829;SDS011;5972;42.134;24.718;2023-05-02T12:47:43;3.17;;;1.20;;
11829;SDS011;5972;42.134;24.718;2023-05-02T12:50:10;2.15;;;1.10;;
11829;SDS011;5972;42.134;24.718;2023-05-02T12:52:47;3.47;;;1.50;;
11829;SDS011;5972;42.134;24.718;2023-05-02T12:55:14;1.30;;;1.13;;
11829;SDS011;5972;42.134;24.718;2023-05-02T12:57:40;1.92;;;1.30;;
11829;SDS011;5972;42.134;24.718;2023-05-02T13:00:07;4.50;;;1.10;;
11829;SDS011;5972;42.134;24.718;2023-05-02T13:02:35;2.50;;;1.02;;
11829;SDS011;5972;42.134;24.718;2023-05-02T13:05:12;2.17;;;1.10;;
11829;SDS011;5972;42.134;24.718;2023-05-02T13:07:38;1.33;;;0.90;;
11829;SDS011;5972;42.134;24.718;2023-05-02T13:10:05;2.58;;;1.20;;
11829;SDS011;5972;42.134;24.718;2023-05-02T13:12:32;1.25;;;1.00;;
11829;SDS011;5972;42.134;24.718;2023-05-02T13:15:01;1.52;;;1.00;;
11829;SDS011;5972;42.134;24.718;2023-05-02T13:17:27;3.53;;;1.20;;
11829;SDS011;5972;42.134;24.718;2023-05-02T13:19:55;3.38;;;1.20;;
11829;SDS011;5972;42.134;24.718;2023-05-02T13:22:22;2.13;;;1.27;;
11829;SDS011;5972;42.134;24.718;2023-05-02T13:24:49;5.43;;;1.02;;
11829;SDS011;5972;42.134;24.718;2023-05-02T13:27:16;2.67;;;1.30;;
11829;SDS011;5972;42.134;24.718;2023-05-02T13:29:42;1.83;;;1.00;;
11829;SDS011;5972;42.134;24.718;2023-05-02T13:32:09;2.65;;;1.15;;
11829;SDS011;5972;42.134;24.718;2023-05-02T13:34:35;3.58;;;1.40;;
11829;SDS011;5972;42.134;24.718;2023-05-02T13:37:03;3.15;;;1.20;;
11829;SDS011;5972;42.134;24.718;2023-05-02T13:39:30;5.85;;;1.45;;
11829;SDS011;5972;42.134;24.718;2023-05-02T13:41:56;1.17;;;1.02;;
11829;SDS011;5972;42.134;24.718;2023-05-02T13:44:23;4.20;;;1.13;;
11829;SDS011;5972;42.134;24.718;2023-05-02T13:46:49;2.83;;;1.20;;
11829;SDS011;5972;42.134;24.718;2023-05-02T13:49:16;4.38;;;1.00;;
11829;SDS011;5972;42.134;24.718;2023-05-02T13:51:42;2.58;;;1.02;;
11829;SDS011;5972;42.134;24.718;2023-05-02T13:54:10;2.80;;;1.48;;
11829;SDS011;5972;42.134;24.718;2023-05-02T13:56:36;2.92;;;1.20;;
11829;SDS011;5972;42.134;24.718;2023-05-02T13:59:03;3.78;;;0.95;;
11829;SDS011;5972;42.134;24.718;2023-05-02T14:01:30;3.67;;;1.10;;
11829;SDS011;5972;42.134;24.718;2023-05-02T14:03:57;1.02;;;1.00;;
11829;SDS011;5972;42.134;24.718;2023-05-02T14:06:23;5.03;;;1.15;;
11829;SDS011;5972;42.134;24.718;2023-05-02T14:08:50;2.17;;;1.10;;
11829;SDS011;5972;42.134;24.718;2023-05-02T14:11:18;2.63;;;1.27;;
11829;SDS011;5972;42.134;24.718;2023-05-02T14:13:44;3.83;;;1.17;;
11829;SDS011;5972;42.134;24.718;2023-05-02T14:16:11;4.80;;;1.30;;
11829;SDS011;5972;42.134;24.718;2023-05-02T14:18:37;3.63;;;1.50;;
11829;SDS011;5972;42.134;24.718;2023-05-02T14:21:04;1.48;;;1.05;;
11829;SDS011;5972;42.134;24.718;2023-05-02T14:23:30;1.17;;;1.08;;
11829;SDS011;5972;42.134;24.718;2023-05-02T14:25:57;5.45;;;1.20;;
11829;SDS011;5972;42.134;24.718;2023-05-02T14:28:25;2.97;;;1.15;;
11829;SDS011;5972;42.134;24.718;2023-05-02T14:30:52;3.05;;;1.70;;
11829;SDS011;5972;42.134;24.718;2023-05-02T14:33:18;3.15;;;1.17;;
11829;SDS011;5972;42.134;24.718;2023-05-02T14:35:48;2.88;;;1.35;;
11829;SDS011;5972;42.134;24.718;2023-05-02T14:38:14;3.10;;;1.20;;
11829;SDS011;5972;42.134;24.718;2023-05-02T14:40:41;4.60;;;1.20;;
11829;SDS011;5972;42.134;24.718;2023-05-02T14:43:07;4.78;;;1.23;;
11829;SDS011;5972;42.134;24.718;2023-05-02T14:45:37;2.80;;;1.38;;
11829;SDS011;5972;42.134;24.718;2023-05-02T14:48:03;5.75;;;1.35;;
11829;SDS011;5972;42.134;24.718;2023-05-02T14:50:30;7.50;;;1.17;;
11829;SDS011;5972;42.134;24.718;2023-05-02T14:52:56;4.03;;;1.20;;
11829;SDS011;5972;42.134;24.718;2023-05-02T14:55:23;4.65;;;1.50;;
11829;SDS011;5972;42.134;24.718;2023-05-02T14:57:49;7.93;;;1.42;;
11829;SDS011;5972;42.134;24.718;2023-05-02T15:00:16;6.82;;;1.65;;
11829;SDS011;5972;42.134;24.718;2023-05-02T15:02:44;11.65;;;1.50;;
11829;SDS011;5972;42.134;24.718;2023-05-02T15:05:10;7.53;;;1.55;;
11829;SDS011;5972;42.134;24.718;2023-05-02T15:07:37;3.45;;;1.48;;